Time;durP1;ratioP1;P1;durP2;ratioP2;P2;SDS_P1;SDS_P2;PMS_P1;PMS_P2;Temp;Humidity;BMP_temperature;BMP_pressure;BME280_temperature;BME280_humidity;BME280_pressure;Samples;Min_cycle;Max_cycle;Signal;HPM_P1;HPM_P2
2022/12/13 02:19:31;;;;;;;8.10;6.10;;;;;;;-4.11;68.55;94854.31;5813935;24;20181;-91
2022/12/13 04:25:28;;;;;;;;;;;;;;;;;;;;;
2022/12/13 05:07:17;;;;;;;;;;;;;;;;;;;;;
2022/12/13 05:16:41;;;;;;;7.10;5.70;;;;;;;-4.45;65.97;94747.81;5951336;23;20175;-79
2022/12/13 05:19:07;;;;;;;8.27;6.00;;;;;;;-4.46;65.96;94734.47;6077340;23;20209;-81
2022/12/13 05:21:34;;;;;;;10.30;5.87;;;;;;;-4.56;66.08;94741.03;6089685;23;20189;-82
2022/12/13 05:24:01;;;;;;;8.73;6.20;;;;;;;-4.48;66.05;94741.31;6089625;23;20541;-82
2022/12/13 05:26:28;;;;;;;9.53;7.00;;;;;;;-4.26;69.98;94738.09;6090019;23;20317;-81
2022/12/13 05:28:55;;;;;;;12.97;7.53;;;;;;;-4.22;65.82;94734.44;6089090;23;20201;-81
2022/12/13 05:31:22;;;;;;;13.37;8.50;;;;;;;-4.21;65.16;94731.81;6090321;23;20175;-80
2022/12/13 05:33:50;;;;;;;13.03;8.23;;;;;;;-4.10;64.91;94731.06;6089563;23;20221;-81
2022/12/13 05:36:16;;;;;;;16.33;8.97;;;;;;;-4.05;64.74;94730.75;6090263;23;20683;-82
2022/12/13 05:38:42;;;;;;;12.10;7.27;;;;;;;-4.23;64.90;94738.66;6147975;23;20175;-81
2022/12/13 05:41:15;;;;;;;8.07;6.07;;;;;;;-4.25;65.04;94735.47;6153051;23;20340;-81
2022/12/13 05:43:41;;;;;;;7.87;5.77;;;;;;;-4.38;65.21;94747.28;6150815;23;20505;-80
2022/12/13 05:46:08;;;;;;;11.33;6.17;;;;;;;-4.38;65.39;94741.44;6149090;23;20183;-82
2022/12/13 05:48:44;;;;;;;8.30;5.80;;;;;;;-4.29;65.23;94739.09;6151649;23;20189;-83
2022/12/13 05:51:12;;;;;;;8.47;6.17;;;;;;;-4.15;65.20;94739.84;6152884;23;20664;-81
2022/12/13 05:53:40;;;;;;;9.93;5.37;;;;;;;-4.05;64.67;94739.09;6152789;23;20196;-81
2022/12/13 05:56:07;;;;;;;8.50;5.87;;;;;;;-3.98;64.44;94747.78;6153136;23;20512;-82
2022/12/13 05:58:34;;;;;;;7.57;5.63;;;;;;;-3.86;64.16;94741.09;6153192;23;20617;-82
2022/12/13 06:01:05;;;;;;;13.83;6.43;;;;;;;-3.79;71.47;94742.22;6153100;23;20175;-82
2022/12/13 06:03:31;;;;;;;14.93;8.20;;;;;;;-3.78;80.13;94735.50;6152851;23;20205;-82
2022/12/13 06:06:00;;;;;;;9.43;6.80;;;;;;;-4.05;68.12;94730.75;6153799;23;20176;-82
2022/12/13 06:08:32;;;;;;;10.63;6.00;;;;;;;-4.01;69.17;94732.13;6155822;23;20206;-82
2022/12/13 06:11:00;;;;;;;7.83;6.20;;;;;;;-3.98;66.81;94732.69;6157333;23;20187;-82
2022/12/13 06:13:27;;;;;;;7.93;5.57;;;;;;;-4.22;65.73;94734.44;6156714;23;20193;-81
2022/12/13 06:15:54;;;;;;;12.33;8.70;;;;;;;-4.24;66.22;94736.28;6159049;23;20175;-80
2022/12/13 06:18:30;;;;;;;36.43;21.67;;;;;;;-4.25;66.81;94737.19;6156679;23;20658;-82
2022/12/13 06:20:57;;;;;;;13.67;8.30;;;;;;;-4.11;66.62;94731.97;6155927;23;20663;-82
2022/12/13 06:23:49;;;;;;;9.83;6.17;;;;;;;-4.09;65.90;94736.91;6155908;23;20198;-81
2022/12/13 06:26:15;;;;;;;7.73;5.17;;;;;;;-3.97;65.52;94733.50;6098540;23;20191;-83
2022/12/13 06:28:44;;;;;;;10.43;6.10;;;;;;;-3.95;65.45;94737.50;6155444;23;20202;-83
2022/12/13 06:31:11;;;;;;;9.73;5.43;;;;;;;-3.87;65.21;94742.81;6154752;23;20262;-82
2022/12/13 06:33:37;;;;;;;6.50;5.20;;;;;;;-3.85;64.58;94742.69;6154064;23;20204;-83
2022/12/13 06:36:05;;;;;;;8.73;5.93;;;;;;;-3.83;64.20;94746.69;6155900;23;20183;-83
2022/12/13 06:38:31;;;;;;;8.57;6.00;;;;;;;-3.91;64.44;94748.16;6154516;23;20169;-83
2022/12/13 06:41:08;;;;;;;6.83;5.40;;;;;;;-3.91;64.55;94748.16;6153880;23;20182;-81
2022/12/13 06:43:35;;;;;;;8.40;6.00;;;;;;;-3.92;64.26;94749.88;6154438;23;20843;-82
2022/12/13 06:46:03;;;;;;;7.73;5.97;;;;;;;-3.93;64.11;94748.25;6154000;23;20178;-82
2022/12/13 06:48:30;;;;;;;11.27;6.33;;;;;;;-4.17;64.56;94752.50;6153517;23;20201;-83
2022/12/13 06:50:59;;;;;;;8.87;6.00;;;;;;;-4.36;64.91;94747.97;6153586;23;20178;-82
2022/12/13 06:53:28;;;;;;;8.63;6.30;;;;;;;-4.37;64.90;94745.56;6153809;23;20202;-83
2022/12/13 06:55:54;;;;;;;8.63;6.10;;;;;;;-4.23;64.95;94745.38;6153296;23;20175;-82
2022/12/13 06:58:23;;;;;;;8.53;6.03;;;;;;;-4.34;64.81;94748.66;6153370;23;20182;-82
2022/12/13 07:00:49;;;;;;;7.63;5.80;;;;;;;-4.24;65.06;94758.91;6153463;23;20190;-81
2022/12/13 07:03:16;;;;;;;12.00;8.40;;;;;;;-4.17;64.73;94760.03;6154168;23;20194;-81
2022/12/13 07:05:42;;;;;;;37.47;21.97;;;;;;;-4.12;64.66;94764.75;6153562;23;20549;-83
2022/12/13 07:08:09;;;;;;;19.57;11.90;;;;;;;-4.10;64.43;94762.94;6151977;23;20541;-81
2022/12/13 07:10:38;;;;;;;10.93;7.30;;;;;;;-4.22;64.82;94760.38;6153145;23;20562;-82
2022/12/13 07:13:05;;;;;;;8.43;6.20;;;;;;;-4.14;64.87;94756.53;6154112;23;20203;-82
2022/12/13 07:15:34;;;;;;;10.10;6.53;;;;;;;-4.17;64.43;94760.84;6154294;23;20182;-81
2022/12/13 07:18:01;;;;;;;7.77;6.03;;;;;;;-4.14;64.35;94759.03;6153222;23;20182;-83
2022/12/13 07:20:27;;;;;;;11.20;6.30;;;;;;;-4.30;64.32;94761.81;6153823;23;20227;-83
2022/12/13 07:22:55;;;;;;;10.40;6.37;;;;;;;-4.25;64.93;94769.84;6153890;23;20221;-82
2022/12/13 07:25:21;;;;;;;8.17;6.30;;;;;;;-4.32;64.34;94773.69;6154363;23;20185;-82
2022/12/13 07:27:48;;;;;;;8.83;6.70;;;;;;;-4.42;64.86;94781.03;6153512;23;20237;-82
2022/12/13 07:30:15;;;;;;;11.63;7.60;;;;;;;-4.44;64.83;94772.84;6153864;23;20206;-82
2022/12/13 07:32:42;;;;;;;10.73;7.30;;;;;;;-4.30;64.65;94769.38;6153641;23;20231;-81
2022/12/13 07:35:09;;;;;;;14.20;8.10;;;;;;;-4.44;64.42;94765.31;6154268;23;20187;-83
2022/12/13 07:37:36;;;;;;;10.43;7.23;;;;;;;-4.49;64.59;94774.84;6153021;23;20182;-82
2022/12/13 07:40:02;;;;;;;10.63;7.40;;;;;;;-4.57;64.61;94772.88;6153301;23;20187;-82
2022/12/13 07:42:29;;;;;;;15.47;7.73;;;;;;;-4.42;64.95;94767.69;6153671;23;20182;-80
2022/12/13 07:44:55;;;;;;;12.80;8.33;;;;;;;-4.36;64.39;94763.03;6153459;23;20190;-81
2022/12/13 07:47:22;;;;;;;12.83;7.57;;;;;;;-4.25;64.03;94765.63;6153929;23;20184;-83
2022/12/13 07:49:50;;;;;;;11.30;7.63;;;;;;;-4.24;63.99;94764.72;6152642;23;20200;-83
2022/12/13 07:52:16;;;;;;;10.93;8.07;;;;;;;-4.17;63.70;94765.88;6153090;23;20177;-83
2022/12/13 07:54:42;;;;;;;11.10;7.67;;;;;;;-3.95;63.16;94775.22;6153041;23;20201;-82
2022/12/13 07:57:09;;;;;;;10.97;7.47;;;;;;;-3.83;62.78;94773.53;6154187;23;20256;-82
2022/12/13 07:59:35;;;;;;;11.50;8.17;;;;;;;-3.83;62.64;94764.28;6152737;23;20179;-82
2022/12/13 08:02:02;;;;;;;13.80;8.10;;;;;;;-3.98;62.34;94767.09;6153172;23;20252;-82
2022/12/13 08:04:28;;;;;;;14.23;8.10;;;;;;;-4.03;62.57;94776.66;6153692;23;20194;-83
2022/12/13 08:06:56;;;;;;;18.13;8.30;;;;;;;-4.12;63.09;94777.31;6153590;23;20182;-81
2022/12/13 08:09:23;;;;;;;11.77;8.33;;;;;;;-4.08;63.06;94774.50;6152315;23;20197;-83
2022/12/13 08:11:49;;;;;;;40.30;24.90;;;;;;;-4.02;62.96;94779.06;6152450;23;20188;-83
2022/12/13 08:14:16;;;;;;;20.10;13.27;;;;;;;-3.94;63.01;94778.53;6152988;23;20201;-80
2022/12/13 08:16:42;;;;;;;10.67;7.27;;;;;;;-3.97;63.22;94777.03;6153016;23;20175;-81
2022/12/13 08:19:10;;;;;;;13.07;7.77;;;;;;;-4.10;63.21;94773.00;6153213;23;20178;-82
2022/12/13 08:21:39;;;;;;;13.17;8.20;;;;;;;-4.07;62.84;94771.06;6153485;23;20182;-81
2022/12/13 08:24:07;;;;;;;11.17;8.30;;;;;;;-3.99;63.15;94761.25;6153543;23;20197;-82
2022/12/13 08:26:34;;;;;;;12.07;7.83;;;;;;;-3.70;63.15;94763.41;6153075;23;20189;-80
2022/12/13 08:29:01;;;;;;;12.90;8.30;;;;;;;-3.49;62.15;94757.63;6152733;23;20232;-81
2022/12/13 08:31:30;;;;;;;12.77;7.97;;;;;;;-3.52;61.77;94759.56;6153003;23;20182;-82
2022/12/13 08:33:56;;;;;;;13.53;7.77;;;;;;;-3.46;61.92;94754.06;6153536;23;20228;-81
2022/12/13 08:36:24;;;;;;;12.80;8.37;;;;;;;-3.21;60.95;94758.91;6153521;23;20177;-82
2022/12/13 08:38:51;;;;;;;10.93;8.23;;;;;;;-3.39;60.58;94765.28;6152363;23;20766;-82
2022/12/13 08:41:20;;;;;;;10.57;7.10;;;;;;;-3.45;61.05;94769.97;6152870;23;20188;-83
2022/12/13 08:43:46;;;;;;;11.37;7.47;;;;;;;-3.66;61.37;94774.88;6153149;23;20516;-83
2022/12/13 08:46:13;;;;;;;10.33;7.30;;;;;;;-3.51;61.85;94776.25;6153319;23;20330;-83
2022/12/13 08:48:39;;;;;;;13.47;8.67;;;;;;;-3.17;61.26;94772.88;6153470;23;20177;-83
2022/12/13 08:51:08;;;;;;;9.97;7.07;;;;;;;-2.97;59.55;94778.94;6153506;23;20179;-81
2022/12/13 08:53:35;;;;;;;11.40;7.73;;;;;;;-2.95;59.99;94776.31;6154035;23;20281;-83
2022/12/13 08:56:02;;;;;;;11.47;7.70;;;;;;;-3.09;60.04;94779.06;6152680;23;20182;-82
2022/12/13 08:58:30;;;;;;;10.37;7.47;;;;;;;-3.07;60.21;94782.25;6153659;23;20178;-81
2022/12/13 09:00:57;;;;;;;9.33;7.13;;;;;;;-3.10;60.66;94787.53;6154499;23;20181;-82
2022/12/13 09:03:24;;;;;;;11.53;7.63;;;;;;;-2.93;60.47;94787.88;6153621;23;20200;-83
2022/12/13 09:05:51;;;;;;;10.50;7.07;;;;;;;-2.64;60.26;94785.66;6152834;23;20676;-81
2022/12/13 09:08:18;;;;;;;9.23;6.63;;;;;;;-2.56;59.42;94793.47;6152949;23;20928;-83
2022/12/13 09:10:45;;;;;;;10.37;7.63;;;;;;;-2.42;59.00;94789.88;6154039;23;20195;-82
2022/12/13 09:13:11;;;;;;;10.77;7.53;;;;;;;-2.66;59.53;94790.03;6154352;23;20253;-82
2022/12/13 09:15:40;;;;;;;9.70;7.07;;;;;;;-2.67;59.54;94780.06;6153521;23;20185;-83
2022/12/13 09:18:06;;;;;;;9.77;7.67;;;;;;;-2.55;59.59;94774.91;6152749;23;20181;-81
2022/12/13 09:20:34;;;;;;;10.30;7.63;;;;;;;-2.68;59.56;94773.41;6153056;23;20175;-82
2022/12/13 09:23:03;;;;;;;9.47;6.87;;;;;;;-3.19;60.11;94769.66;6153192;23;20199;-82
2022/12/13 09:25:31;;;;;;;11.23;8.23;;;;;;;-3.45;61.90;94770.75;6153042;23;20179;-82
2022/12/13 09:27:58;;;;;;;9.80;7.37;;;;;;;-3.70;62.01;94769.25;6153184;23;20214;-82
2022/12/13 09:30:26;;;;;;;10.13;6.97;;;;;;;-3.53;62.20;94778.88;6152789;23;20206;-82
2022/12/13 09:32:53;;;;;;;11.03;6.87;;;;;;;-3.28;62.49;94780.41;6153242;23;20254;-83
2022/12/13 09:35:20;;;;;;;10.87;7.13;;;;;;;-2.82;61.38;94774.47;6153480;23;20181;-82
2022/12/13 09:37:46;;;;;;;10.80;6.67;;;;;;;-2.83;60.09;94776.19;6152484;23;20171;-83
2022/12/13 09:40:20;;;;;;;11.03;7.30;;;;;;;-2.70;60.33;94771.03;6161154;23;20182;-81
2022/12/13 09:42:49;;;;;;;9.67;6.80;;;;;;;-2.65;59.49;94765.63;6155226;23;20605;-81
2022/12/13 09:45:16;;;;;;;9.10;6.57;;;;;;;-2.84;60.04;94769.53;6154945;23;20685;-83
2022/12/13 09:47:45;;;;;;;11.47;7.60;;;;;;;-2.59;60.30;94763.44;6154515;23;20174;-83
2022/12/13 09:50:19;;;;;;;8.53;6.40;;;;;;;-2.21;59.99;94757.19;6154901;23;20263;-82
2022/12/13 09:52:46;;;;;;;12.13;7.47;;;;;;;-2.22;58.61;94763.13;6154925;23;20154;-83
2022/12/13 09:55:21;;;;;;;10.23;6.70;;;;;;;-2.16;58.69;94758.44;6154848;23;20691;-80
2022/12/13 09:57:49;;;;;;;9.97;7.40;;;;;;;-2.02;58.50;94746.44;6154702;23;20249;-82
2022/12/13 10:00:18;;;;;;;9.77;6.90;;;;;;;-2.09;58.37;94746.94;6155654;23;20508;-82
2022/12/13 10:02:47;;;;;;;10.10;7.50;;;;;;;-1.87;58.50;94732.63;6154986;23;20205;-82
2022/12/13 10:05:29;;;;;;;12.80;7.70;;;;;;;-1.58;57.82;94748.75;6155292;23;20166;-81
2022/12/13 10:07:59;;;;;;;10.70;7.47;;;;;;;-1.92;57.33;94743.06;6154413;23;20182;-81
2022/12/13 10:10:26;;;;;;;12.90;7.73;;;;;;;-1.97;58.16;94741.84;6154154;23;20681;-82
2022/12/13 10:12:58;;;;;;;9.43;7.13;;;;;;;-1.97;57.63;94741.84;6154458;23;20199;-82
2022/12/13 10:15:26;;;;;;;12.50;7.60;;;;;;;-2.27;58.87;94740.81;6155189;23;20163;-81
2022/12/13 10:17:52;;;;;;;9.37;7.03;;;;;;;-2.50;58.79;94737.53;6153574;23;20179;-82
2022/12/13 10:20:21;;;;;;;11.10;7.47;;;;;;;-2.47;59.41;94739.03;6154779;23;20226;-81
2022/12/13 10:22:48;;;;;;;11.43;7.67;;;;;;;-2.31;59.85;94736.91;6153457;23;20257;-82
2022/12/13 10:25:17;;;;;;;12.73;8.70;;;;;;;-1.90;59.41;94732.84;6154745;23;20175;-82
2022/12/13 10:27:45;;;;;;;11.17;7.37;;;;;;;-1.83;58.59;94728.94;6153491;23;20242;-82
2022/12/13 10:30:14;;;;;;;13.40;8.60;;;;;;;-1.94;58.49;94727.28;6153967;23;20203;-82
2022/12/13 10:32:52;;;;;;;11.40;7.67;;;;;;;-2.49;59.22;94726.53;6154404;23;20190;-81
2022/12/13 10:35:23;;;;;;;11.47;7.90;;;;;;;-2.47;60.00;94728.94;6153630;23;20171;-81
2022/12/13 10:37:52;;;;;;;12.60;7.60;;;;;;;-2.60;60.16;94728.28;6154094;23;20170;-81
2022/12/13 10:40:27;;;;;;;12.50;8.17;;;;;;;-2.34;60.16;94719.53;6154208;23;20178;-82
2022/12/13 10:43:07;;;;;;;12.23;7.50;;;;;;;-2.12;59.72;94711.84;6154529;23;20267;-82
2022/12/13 10:45:33;;;;;;;12.50;8.70;;;;;;;-1.76;58.60;94713.19;6154317;23;20231;-82
2022/12/13 10:48:00;;;;;;;12.03;7.83;;;;;;;-1.81;58.55;94710.25;6154408;23;20179;-82
2022/12/13 10:50:29;;;;;;;14.17;8.60;;;;;;;-1.73;58.42;94705.34;6154642;23;20194;-82
2022/12/13 10:53:00;;;;;;;11.13;8.20;;;;;;;-1.55;58.62;94707.34;6154195;23;20191;-81
2022/12/13 10:55:30;;;;;;;13.30;8.60;;;;;;;-1.67;57.96;94708.31;6154286;23;20186;-82
2022/12/13 10:57:58;;;;;;;13.40;8.27;;;;;;;-1.76;58.19;94707.34;6154456;23;20175;-82
2022/12/13 11:00:35;;;;;;;26.37;17.27;;;;;;;-1.87;58.45;94704.88;6154233;23;20171;-82
2022/12/13 11:03:02;;;;;;;35.97;20.70;;;;;;;-1.90;58.67;94700.88;6153968;23;20871;-81
2022/12/13 11:05:32;;;;;;;11.20;8.60;;;;;;;-1.83;58.24;94706.22;6154203;23;20175;-82
2022/12/13 11:08:15;;;;;;;16.33;10.33;;;;;;;-1.86;63.62;94698.91;6153177;23;20178;-82
2022/12/13 11:10:42;;;;;;;11.27;7.40;;;;;;;-2.01;59.49;94695.09;6153322;23;20202;-80
2022/12/13 11:13:22;;;;;;;12.53;8.90;;;;;;;-1.85;59.35;94695.47;6153469;23;20214;-82
2022/12/13 11:15:55;;;;;;;14.77;7.97;;;;;;;-1.96;59.00;94696.34;6153954;23;20237;-81
2022/12/13 11:18:25;;;;;;;13.70;7.83;;;;;;;-1.81;58.73;94699.34;6153222;23;20195;-82
2022/12/13 11:20:56;;;;;;;12.60;8.90;;;;;;;-1.85;59.41;94698.00;6153666;23;20175;-82
2022/12/13 11:23:29;;;;;;;11.63;8.70;;;;;;;-1.60;59.19;94686.72;6153379;23;20195;-82
2022/12/13 11:25:59;;;;;;;14.03;9.63;;;;;;;-1.22;58.44;94686.91;6153525;23;20230;-82
2022/12/13 11:28:58;;;;;;;12.40;8.90;;;;;;;-1.23;57.72;94692.88;6153709;23;20185;-82
2022/12/13 11:31:31;;;;;;;17.10;9.27;;;;;;;-0.94;57.51;94679.53;6152952;23;20183;-82
2022/12/13 11:34:04;;;;;;;13.80;9.23;;;;;;;-0.61;57.25;94691.06;6153646;23;20214;-81
2022/12/13 11:36:41;;;;;;;11.77;8.57;;;;;;;-0.59;55.71;94676.56;6153662;23;20164;-82
2022/12/13 11:39:18;;;;;;;9.90;8.40;;;;;;;-0.66;56.23;94678.81;6153545;23;20160;-83
2022/12/13 11:41:54;;;;;;;11.80;8.57;;;;;;;-1.00;56.35;94678.34;6154146;23;20159;-82
2022/12/13 11:44:27;;;;;;;11.83;8.90;;;;;;;-0.95;56.97;94680.44;6153892;23;20266;-82
2022/12/13 11:46:55;;;;;;;11.23;8.73;;;;;;;-0.75;56.93;94670.25;6153085;23;20628;-81
2022/12/13 11:49:32;;;;;;;12.23;8.63;;;;;;;-1.14;57.36;94676.13;6153399;23;20179;-84
2022/12/13 11:52:04;;;;;;;15.13;8.90;;;;;;;-1.65;58.06;94671.16;6153618;23;20165;-82
2022/12/13 11:54:43;;;;;;;13.47;9.00;;;;;;;-1.85;58.68;94681.13;6153634;23;20202;-81
2022/12/13 11:57:18;;;;;;;18.30;9.70;;;;;;;-1.78;59.49;94677.19;6153644;23;20154;-80
2022/12/13 11:59:48;;;;;;;13.23;8.90;;;;;;;-1.63;58.76;94672.63;6153518;23;20476;-82
2022/12/13 12:02:20;;;;;;;10.30;8.00;;;;;;;-1.57;58.46;94674.66;6154026;23;20159;-82
2022/12/13 12:04:50;;;;;;;20.90;9.03;;;;;;;-1.82;59.30;94680.88;6152840;23;20223;-82
2022/12/13 12:07:20;;;;;;;11.50;7.70;;;;;;;-1.62;58.62;94674.22;6153025;23;20162;-82
2022/12/13 12:09:56;;;;;;;15.53;8.40;;;;;;;-1.83;58.97;94679.28;6152528;23;20233;-81
2022/12/13 12:12:27;;;;;;;13.50;8.10;;;;;;;-1.96;59.40;94675.38;6153194;23;20183;-81
2022/12/13 12:14:59;;;;;;;11.40;8.07;;;;;;;-1.83;59.49;94673.44;6153118;23;20195;-82
2022/12/13 12:17:26;;;;;;;13.13;8.70;;;;;;;-1.68;59.62;94661.31;6153211;23;20162;-82
2022/12/13 12:19:55;;;;;;;14.47;9.17;;;;;;;-1.55;58.94;94664.44;6153378;23;20187;-81
2022/12/13 12:22:36;;;;;;;12.00;7.60;;;;;;;-1.63;58.76;94660.00;6153764;23;20179;-81
2022/12/13 12:25:22;;;;;;;12.37;7.57;;;;;;;-1.52;58.36;94662.44;6153363;23;20185;-81
2022/12/13 12:27:56;;;;;;;14.67;9.33;;;;;;;-1.20;58.75;94664.84;6152195;23;20171;-81
2022/12/13 12:30:26;;;;;;;18.30;9.80;;;;;;;-1.08;58.74;94657.97;6153748;23;20205;-82
2022/12/13 12:32:57;;;;;;;14.67;9.57;;;;;;;-0.75;58.40;94655.09;6153155;23;20170;-80
2022/12/13 12:36:14;;;;;;;14.27;9.63;;;;;;;-0.38;57.16;94659.53;6153995;23;20262;-83
2022/12/13 12:39:21;;;;;;;16.00;9.93;;;;;;;-0.17;56.35;94659.38;6033527;23;20162;-83
2022/12/13 12:42:05;;;;;;;18.80;10.37;;;;;;;-0.20;56.02;94652.09;6034042;23;20165;-81
2022/12/13 12:44:42;;;;;;;16.57;10.33;;;;;;;-0.15;56.38;94652.47;6147523;23;20715;-81
2022/12/13 12:47:25;;;;;;;16.13;10.53;;;;;;;-0.17;55.75;94660.19;6153891;23;20236;-82
2022/12/13 12:50:17;;;;;;;15.47;10.30;;;;;;;-0.10;56.20;94660.47;6152034;23;20187;-83
2022/12/13 12:52:59;;;;;;;14.40;10.50;;;;;;;-0.23;56.09;94655.69;6153441;23;20174;-82
2022/12/13 12:55:38;;;;;;;14.87;10.20;;;;;;;-0.26;56.04;94650.88;6152698;23;20640;-82
2022/12/13 12:58:18;;;;;;;21.60;10.43;;;;;;;-0.32;56.22;94655.66;6152188;23;20163;-81
2022/12/13 13:00:56;;;;;;;14.03;9.73;;;;;;;-0.74;56.58;94666.00;6153432;23;20762;-83
2022/12/13 13:03:25;;;;;;;14.80;8.77;;;;;;;-0.81;56.88;94665.75;6152611;23;20313;-82
2022/12/13 13:05:56;;;;;;;15.53;9.43;;;;;;;-0.99;57.63;94672.34;6155338;23;20197;-81
2022/12/13 13:08:27;;;;;;;18.87;9.47;;;;;;;-0.70;57.41;94678.25;6152845;23;20163;-83
2022/12/13 13:10:55;;;;;;;29.47;18.90;;;;;;;-0.47;57.11;94676.31;6152905;23;20194;-83
2022/12/13 13:13:35;;;;;;;59.50;35.43;;;;;;;-0.28;56.70;94677.25;6153019;23;20205;-83
2022/12/13 13:16:02;;;;;;;31.30;20.17;;;;;;;-0.26;56.67;94678.72;6155150;23;20163;-82
2022/12/13 13:18:47;;;;;;;18.63;11.77;;;;;;;-0.14;56.26;94679.38;6155698;23;20178;-83
2022/12/13 13:21:32;;;;;;;19.87;10.73;;;;;;;-0.08;55.77;94683.91;6155307;23;20198;-82
2022/12/13 13:24:12;;;;;;;18.63;9.73;;;;;;;-0.26;56.52;94681.25;6156204;23;20191;-82
2022/12/13 13:26:41;;;;;;;15.87;10.23;;;;;;;-0.29;56.76;94686.56;6157728;23;20170;-82
2022/12/13 13:29:28;;;;;;;13.23;9.57;;;;;;;-0.32;55.96;94686.00;6156258;23;20179;-82
2022/12/13 13:31:55;;;;;;;14.50;10.03;;;;;;;-0.44;55.54;94686.16;6155157;23;20195;-81
2022/12/13 13:34:24;;;;;;;12.93;9.20;;;;;;;-0.54;56.65;94692.13;6155197;23;20259;-81
2022/12/13 13:36:51;;;;;;;13.33;9.07;;;;;;;-0.61;56.16;94681.75;6155569;23;20181;-82
2022/12/13 13:39:35;;;;;;;14.20;9.00;;;;;;;-0.67;56.63;94684.78;6154948;23;20242;-82
2022/12/13 13:42:16;;;;;;;13.47;9.47;;;;;;;-0.78;56.77;94684.91;6156191;23;20159;-82
2022/12/13 13:45:17;;;;;;;13.63;9.43;;;;;;;-0.75;60.67;94684.63;6154820;23;20262;-83
2022/12/13 13:47:46;;;;;;;12.57;8.27;;;;;;;0.49;100.00;94683.00;6155216;23;20235;-83
2022/12/13 13:50:41;;;;;;;17.07;9.57;;;;;;;0.43;61.81;94687.81;6155006;23;20485;-82
2022/12/13 13:53:43;;;;;;;16.07;10.23;;;;;;;0.11;59.49;94693.19;6154192;23;20622;-82
2022/12/13 13:56:25;;;;;;;16.00;10.00;;;;;;;-0.12;59.00;94685.09;6154448;23;20158;-82
2022/12/13 13:59:40;;;;;;;16.83;11.47;;;;;;;-0.33;58.76;94676.81;6153850;23;20159;-82
2022/12/13 14:02:34;;;;;;;13.90;9.77;;;;;;;-0.58;59.00;94689.06;6034871;23;20162;-82
2022/12/13 14:05:33;;;;;;;16.17;9.90;;;;;;;-0.70;58.88;94697.69;6147131;23;20198;-82
2022/12/13 14:08:23;;;;;;;14.10;9.80;;;;;;;-0.73;59.22;94680.25;6093481;23;20271;-83
2022/12/13 14:11:16;;;;;;;16.77;9.77;;;;;;;-0.84;59.55;94687.94;6153737;23;20198;-83
2022/12/13 14:14:39;;;;;;;16.90;9.97;;;;;;;-0.96;60.01;94679.66;6154748;23;20218;-81
2022/12/13 14:17:34;;;;;;;13.80;10.17;;;;;;;-1.13;59.54;94688.66;6123677;23;20672;-82
2022/12/13 14:20:25;;;;;;;15.90;9.20;;;;;;;-1.39;60.71;94684.97;6147929;23;20518;-81
2022/12/13 14:22:59;;;;;;;14.43;9.63;;;;;;;-1.65;61.17;94684.56;6153918;23;20170;-81
2022/12/13 14:25:44;;;;;;;27.73;16.83;;;;;;;-2.09;62.22;94683.88;6153778;23;20159;-83
2022/12/13 14:28:17;;;;;;;16.80;10.73;;;;;;;-2.10;62.32;94691.56;6154057;23;20163;-81
2022/12/13 14:30:45;;;;;;;14.83;9.57;;;;;;;-2.30;63.04;94693.16;6153458;23;20187;-81
2022/12/13 14:33:19;;;;;;;15.77;9.20;;;;;;;-2.50;63.91;94693.91;6153436;23;20958;-82
2022/12/13 14:35:52;;;;;;;13.97;9.43;;;;;;;-2.38;63.82;94698.00;6154087;23;20163;-80
2022/12/13 14:38:23;;;;;;;14.23;9.57;;;;;;;-2.24;63.44;94697.72;6153751;23;20159;-82
2022/12/13 14:40:51;;;;;;;13.37;9.90;;;;;;;-2.11;63.17;94695.81;6154344;23;20182;-80
2022/12/13 14:43:23;;;;;;;17.57;10.23;;;;;;;-2.20;63.59;94699.06;6153310;23;20205;-81
2022/12/13 14:45:54;;;;;;;15.63;10.23;;;;;;;-2.26;63.75;94701.28;6152976;23;20743;-80
2022/12/13 14:48:23;;;;;;;14.53;9.73;;;;;;;-2.32;63.53;94705.09;6153656;23;20166;-82
2022/12/13 14:50:51;;;;;;;15.10;9.90;;;;;;;-2.45;64.19;94707.75;6153072;23;20195;-83
2022/12/13 14:53:26;;;;;;;15.17;9.73;;;;;;;-2.35;63.71;94702.81;6153662;23;20198;-82
2022/12/13 14:56:07;;;;;;;17.43;11.07;;;;;;;-2.20;63.41;94704.13;6152922;23;20162;-82
2022/12/13 14:58:35;;;;;;;14.03;9.83;;;;;;;-2.44;64.17;94708.56;6153844;23;20644;-82
2022/12/13 15:01:02;;;;;;;17.13;10.33;;;;;;;-2.37;64.05;94688.72;6153155;23;20182;-80
2022/12/13 15:03:31;;;;;;;16.43;10.27;;;;;;;-2.47;64.04;94706.25;6153076;23;20201;-82
2022/12/13 15:06:01;;;;;;;15.53;10.40;;;;;;;-2.65;64.90;94707.69;6153439;23;20181;-82
2022/12/13 15:08:28;;;;;;;17.57;10.17;;;;;;;-2.54;65.01;94702.63;6152266;23;20175;-80
2022/12/13 15:10:57;;;;;;;13.70;9.77;;;;;;;-2.56;64.60;94695.19;6153203;23;20225;-80
2022/12/13 15:13:28;;;;;;;16.67;10.07;;;;;;;-2.81;65.77;94690.44;6153528;23;20929;-82
2022/12/13 15:15:58;;;;;;;14.20;10.50;;;;;;;-2.65;65.67;94700.94;6152426;23;20338;-82
2022/12/13 15:18:26;;;;;;;19.23;10.80;;;;;;;-2.57;65.59;94690.28;6153614;23;20159;-82
2022/12/13 15:20:56;;;;;;;31.77;18.33;;;;;;;-2.45;65.22;94700.19;6153393;23;20249;-82
2022/12/13 15:23:25;;;;;;;30.87;18.33;;;;;;;-2.54;65.28;94695.88;6153466;23;20199;-82
2022/12/13 15:25:57;;;;;;;16.13;11.03;;;;;;;-2.78;66.13;94701.09;6153755;23;20179;-82
2022/12/13 15:28:27;;;;;;;15.23;10.03;;;;;;;-2.97;66.96;94692.53;6153339;23;20159;-82
2022/12/13 15:30:54;;;;;;;18.90;11.03;;;;;;;-3.00;67.19;94697.78;6153963;23;20195;-81
2022/12/13 15:33:22;;;;;;;17.23;9.67;;;;;;;-3.00;67.39;94695.28;6152925;23;20205;-82
2022/12/13 15:36:00;;;;;;;20.33;10.90;;;;;;;-3.15;68.13;94693.00;6153292;23;20183;-80
2022/12/13 15:38:30;;;;;;;15.50;10.80;;;;;;;-3.11;68.99;94691.06;6153835;23;20492;-82
2022/12/13 15:40:59;;;;;;;17.10;11.03;;;;;;;-2.96;67.89;94687.38;6153674;23;20312;-81
2022/12/13 15:43:33;;;;;;;15.40;10.20;;;;;;;-2.80;67.23;94687.00;6153809;23;20340;-82
2022/12/13 15:46:00;;;;;;;18.13;11.17;;;;;;;-2.71;68.17;94693.06;6154117;23;20167;-82
2022/12/13 15:48:29;;;;;;;15.27;10.07;;;;;;;-2.83;67.83;94688.03;6152735;23;20210;-81
2022/12/13 15:51:11;;;;;;;17.23;11.27;;;;;;;-2.85;67.84;94686.56;6152968;23;20214;-82
2022/12/13 15:53:40;;;;;;;18.93;10.53;;;;;;;-3.09;68.95;94686.72;6152378;23;20194;-81
2022/12/13 15:56:30;;;;;;;18.70;10.57;;;;;;;-3.13;69.00;94688.66;6152803;23;20186;-83
2022/12/13 15:58:57;;;;;;;16.40;10.20;;;;;;;-3.02;68.97;94684.53;6152441;23;20179;-82
2022/12/13 16:01:32;;;;;;;15.43;10.20;;;;;;;-3.03;68.98;94683.72;6153295;23;20187;-82
2022/12/13 16:04:02;;;;;;;17.00;10.60;;;;;;;-2.98;73.98;94693.44;6152823;23;20198;-82
2022/12/13 16:06:30;;;;;;;18.30;10.33;;;;;;;-2.98;70.30;94683.38;6152448;23;20162;-82
2022/12/13 16:09:01;;;;;;;14.40;10.00;;;;;;;-3.06;70.01;94680.63;6151737;23;20250;-83
2022/12/13 16:11:31;;;;;;;18.47;10.47;;;;;;;-2.92;69.43;94675.38;6152188;23;20195;-81
2022/12/13 16:14:35;;;;;;;19.70;10.10;;;;;;;-3.04;69.85;94673.75;6152281;23;20201;-81
2022/12/13 16:17:05;;;;;;;49.80;29.50;;;;;;;-2.89;69.91;94667.59;6152716;23;20289;-84
2022/12/13 16:19:32;;;;;;;32.67;20.63;;;;;;;-2.72;68.92;94668.81;6152027;23;20178;-81
2022/12/13 16:21:58;;;;;;;16.43;10.33;;;;;;;-2.87;69.36;94668.25;6153738;23;20174;-82
2022/12/13 16:24:26;;;;;;;14.37;10.43;;;;;;;-3.02;69.92;94659.34;6152548;23;20206;-81
2022/12/13 16:26:52;;;;;;;12.10;8.70;;;;;;;-3.06;70.68;94668.03;6152736;23;20178;-82
2022/12/13 16:29:19;;;;;;;16.57;9.70;;;;;;;-3.19;71.17;94669.00;6154962;23;20175;-81
2022/12/13 16:31:46;;;;;;;13.70;9.00;;;;;;;-3.30;72.14;94671.53;6153379;23;20199;-81
2022/12/13 16:34:16;;;;;;;17.23;10.50;;;;;;;-3.25;72.56;94669.44;6154607;23;20199;-83
2022/12/13 16:36:43;;;;;;;15.37;10.10;;;;;;;-3.25;72.94;94669.44;6153034;23;20639;-82
2022/12/13 16:39:10;;;;;;;15.03;9.70;;;;;;;-3.17;72.75;94673.91;6153458;23;20178;-82
2022/12/13 16:41:40;;;;;;;14.47;9.73;;;;;;;-3.03;72.02;94661.06;6153533;23;20204;-82
2022/12/13 16:44:09;;;;;;;15.10;10.07;;;;;;;-3.20;73.16;94654.81;6152743;23;20206;-81
2022/12/13 16:46:39;;;;;;;16.23;10.17;;;;;;;-3.41;74.64;94648.06;6153021;23;20450;-80
2022/12/13 16:49:17;;;;;;;17.93;10.50;;;;;;;-3.51;75.38;94648.78;6153066;23;20629;-82
2022/12/13 16:51:44;;;;;;;12.23;9.47;;;;;;;-3.52;75.84;94643.84;6153822;23;20190;-82
2022/12/13 16:54:10;;;;;;;16.67;10.00;;;;;;;-3.56;76.17;94652.53;6153470;23;20667;-82
2022/12/13 16:56:38;;;;;;;15.20;10.13;;;;;;;-3.50;76.44;94652.09;6153424;23;20209;-82